Time;durP1;ratioP1;P1;durP2;ratioP2;P2;SDS_P1;SDS_P2;PMS_P1;PMS_P2;Temp;Humidity;BMP_temperature;BMP_pressure;BME280_temperature;BME280_humidity;BME280_pressure;Samples;Min_cycle;Max_cycle;Signal;HPM_P1;HPM_P2
2023/05/26 00:01:14;;;;;;;16.45;9.98;;;17.80;99.90;;;;;;4931456;29;20044;-75
2023/05/26 00:03:44;;;;;;;16.98;9.27;;;17.80;99.90;;;;;;4932921;29;20451;-74
2023/05/26 00:06:11;;;;;;;16.10;8.95;;;17.80;99.90;;;;;;4933378;29;20042;-76
2023/05/26 00:08:38;;;;;;;14.50;8.70;;;17.80;99.90;;;;;;4933350;29;20136;-76
2023/05/26 00:11:05;;;;;;;14.73;8.70;;;17.70;99.90;;;;;;4932155;29;20039;-76
2023/05/26 00:13:31;;;;;;;19.95;9.90;;;17.80;99.90;;;;;;4914952;29;20047;-76
2023/05/26 00:15:57;;;;;;;15.13;8.90;;;17.70;99.90;;;;;;4918094;29;20020;-75
2023/05/26 00:18:26;;;;;;;15.80;8.60;;;17.80;99.90;;;;;;4914258;29;20535;-76
2023/05/26 00:20:55;;;;;;;16.83;9.07;;;17.80;99.90;;;;;;4917454;29;20396;-76
2023/05/26 00:23:22;;;;;;;14.60;8.48;;;17.80;99.90;;;;;;4917949;29;20053;-76
2023/05/26 00:25:51;;;;;;;14.02;8.63;;;17.70;99.90;;;;;;4917519;29;20032;-75
2023/05/26 00:28:16;;;;;;;15.00;8.98;;;17.70;99.90;;;;;;4917606;29;20032;-76
2023/05/26 00:30:43;;;;;;;16.30;9.15;;;17.70;99.90;;;;;;4917595;29;20032;-75
2023/05/26 00:33:09;;;;;;;20.48;9.68;;;17.70;99.90;;;;;;4917610;29;20028;-75
2023/05/26 00:35:37;;;;;;;14.88;9.35;;;17.70;99.90;;;;;;4900743;29;20075;-74
2023/05/26 00:38:06;;;;;;;18.70;9.50;;;17.70;99.90;;;;;;4901034;29;20040;-75
2023/05/26 00:40:32;;;;;;;15.82;9.20;;;17.60;99.90;;;;;;4900700;29;20079;-75
2023/05/26 00:42:58;;;;;;;18.63;8.95;;;17.60;99.90;;;;;;4917421;29;20168;-76
2023/05/26 00:45:24;;;;;;;16.23;9.45;;;17.50;99.90;;;;;;4901129;29;20040;-75
2023/05/26 00:47:51;;;;;;;16.48;8.60;;;17.60;99.90;;;;;;4917821;29;20079;-75
2023/05/26 00:50:17;;;;;;;20.63;10.07;;;17.50;99.90;;;;;;4901181;29;20042;-75
2023/05/26 00:52:44;;;;;;;17.15;9.77;;;17.50;99.90;;;;;;4917641;29;20035;-76
2023/05/26 00:55:10;;;;;;;14.52;9.10;;;17.40;99.90;;;;;;4901014;29;20059;-76
2023/05/26 00:57:37;;;;;;;17.23;9.50;;;17.50;99.90;;;;;;4900702;29;20488;-77
2023/05/26 01:00:07;;;;;;;17.52;8.48;;;17.50;99.90;;;;;;4901325;29;20032;-76
2023/05/26 01:02:34;;;;;;;16.00;9.18;;;17.50;99.90;;;;;;4916784;29;20471;-76
2023/05/26 01:05:00;;;;;;;14.82;8.93;;;17.50;99.90;;;;;;4917739;29;20044;-77
2023/05/26 01:07:26;;;;;;;17.25;9.30;;;17.50;99.90;;;;;;4917733;29;20028;-76
2023/05/26 01:09:52;;;;;;;17.13;9.65;;;17.50;99.90;;;;;;4925629;29;20043;-76
2023/05/26 01:12:30;;;;;;;15.15;9.93;;;17.50;99.90;;;;;;4928629;29;20052;-76
2023/05/26 01:15:04;;;;;;;15.85;9.13;;;17.50;99.90;;;;;;4902307;29;20036;-76
2023/05/26 01:17:38;;;;;;;18.23;8.85;;;17.50;99.90;;;;;;4917998;29;20036;-76
2023/05/26 01:20:09;;;;;;;16.92;9.80;;;17.50;99.90;;;;;;4900851;29;20504;-75
2023/05/26 01:22:51;;;;;;;16.13;8.80;;;17.50;99.90;;;;;;4917456;29;20103;-76
2023/05/26 01:25:44;;;;;;;14.52;8.80;;;17.50;99.90;;;;;;4899501;29;20555;-76
2023/05/26 01:28:20;;;;;;;17.48;9.90;;;17.50;99.90;;;;;;4907368;29;20036;-76
2023/05/26 01:30:47;;;;;;;15.02;8.52;;;17.50;99.90;;;;;;4899792;29;20099;-76
2023/05/26 01:33:14;;;;;;;15.98;9.27;;;17.50;99.90;;;;;;4900417;29;20047;-76
2023/05/26 01:35:40;;;;;;;14.52;8.95;;;17.40;99.90;;;;;;4891816;29;20119;-76
2023/05/26 01:38:07;;;;;;;17.52;9.57;;;17.40;99.90;;;;;;4896566;29;20604;-76
2023/05/26 01:40:34;;;;;;;17.77;8.77;;;17.50;99.90;;;;;;4896845;29;20088;-76
2023/05/26 01:43:11;;;;;;;16.80;9.57;;;17.50;99.90;;;;;;4880054;29;20016;-76
2023/05/26 01:45:48;;;;;;;16.23;8.93;;;17.50;99.90;;;;;;4900885;29;20039;-76
2023/05/26 01:48:16;;;;;;;16.88;9.70;;;17.50;99.90;;;;;;4896389;29;20390;-76
2023/05/26 01:50:51;;;;;;;16.75;9.80;;;17.50;99.90;;;;;;4879738;29;20556;-75
2023/05/26 01:53:21;;;;;;;17.30;10.38;;;17.40;99.90;;;;;;4896965;29;20035;-76
2023/05/26 01:55:51;;;;;;;15.95;9.60;;;17.50;99.90;;;;;;4896365;29;20032;-77
2023/05/26 01:58:19;;;;;;;14.43;9.15;;;17.50;99.90;;;;;;4895276;29;20032;-77
2023/05/26 02:00:47;;;;;;;18.25;9.68;;;17.50;99.90;;;;;;4895388;29;20035;-76
2023/05/26 02:03:13;;;;;;;16.88;9.50;;;17.50;99.90;;;;;;4895164;29;20043;-76
2023/05/26 02:05:40;;;;;;;18.85;9.50;;;17.50;99.90;;;;;;4883967;29;20052;-77
2023/05/26 02:08:06;;;;;;;16.35;9.05;;;17.40;99.90;;;;;;4879441;29;20389;-77
2023/05/26 02:10:32;;;;;;;17.77;9.85;;;17.50;99.90;;;;;;4896393;29;20024;-76
2023/05/26 02:12:58;;;;;;;18.67;10.13;;;17.50;99.90;;;;;;4897580;29;20051;-76
2023/05/26 02:15:24;;;;;;;20.67;10.98;;;17.50;99.90;;;;;;4915328;29;20024;-76
2023/05/26 02:17:53;;;;;;;15.23;9.40;;;17.50;99.90;;;;;;4897773;29;20044;-77
2023/05/26 02:20:19;;;;;;;17.30;8.90;;;17.50;99.90;;;;;;4913811;29;20480;-77
2023/05/26 02:22:45;;;;;;;15.88;10.15;;;17.50;99.90;;;;;;4899509;29;20043;-76
2023/05/26 02:25:11;;;;;;;15.93;9.75;;;17.50;99.90;;;;;;4914730;29;20044;-76
2023/05/26 02:27:37;;;;;;;17.90;9.40;;;17.50;99.90;;;;;;4918752;29;20031;-75
2023/05/26 02:30:04;;;;;;;15.23;9.30;;;17.40;99.90;;;;;;4897986;29;20035;-76
2023/05/26 02:32:30;;;;;;;17.25;10.18;;;17.40;99.90;;;;;;4915002;29;20024;-79
2023/05/26 02:34:56;;;;;;;18.50;9.35;;;17.40;99.90;;;;;;4920694;29;20031;-78
2023/05/26 02:37:22;;;;;;;17.02;9.20;;;17.40;99.90;;;;;;4913290;29;20027;-78
2023/05/26 02:39:48;;;;;;;18.98;9.52;;;17.30;99.90;;;;;;4913579;29;20024;-77
2023/05/26 02:42:14;;;;;;;15.48;9.52;;;17.30;99.90;;;;;;4914800;29;20491;-77
2023/05/26 02:44:40;;;;;;;18.25;10.75;;;17.30;99.90;;;;;;4917819;29;20039;-76
2023/05/26 02:47:06;;;;;;;15.95;10.45;;;17.20;99.90;;;;;;4914895;29;20009;-76
2023/05/26 02:49:31;;;;;;;17.55;11.40;;;17.30;99.90;;;;;;4897356;29;20047;-77
2023/05/26 02:51:57;;;;;;;15.27;8.88;;;17.20;99.90;;;;;;4914581;29;20024;-77
2023/05/26 02:54:23;;;;;;;18.98;9.60;;;17.20;99.90;;;;;;4914427;29;20443;-76
2023/05/26 02:56:49;;;;;;;20.58;10.05;;;17.20;99.90;;;;;;4897310;29;20040;-77
2023/05/26 02:59:15;;;;;;;17.70;9.90;;;17.10;99.90;;;;;;4918430;29;20034;-75
2023/05/26 03:01:40;;;;;;;18.88;10.70;;;17.20;99.90;;;;;;4914330;29;20024;-77
2023/05/26 03:04:06;;;;;;;19.83;10.85;;;17.20;99.90;;;;;;4913421;29;20080;-77
2023/05/26 03:06:32;;;;;;;16.70;10.52;;;17.20;99.90;;;;;;4914223;29;20378;-76
2023/05/26 03:08:58;;;;;;;20.60;11.35;;;17.20;99.90;;;;;;4902029;29;20040;-77
2023/05/26 03:11:25;;;;;;;19.48;10.63;;;17.20;99.90;;;;;;4897144;29;20063;-77
2023/05/26 03:13:50;;;;;;;18.58;9.88;;;17.20;99.90;;;;;;4914667;29;20032;-76
2023/05/26 03:16:16;;;;;;;17.17;10.18;;;17.20;99.90;;;;;;4912976;29;20381;-76
2023/05/26 03:18:44;;;;;;;18.95;10.90;;;17.30;99.90;;;;;;4897456;29;20429;-76
2023/05/26 03:21:10;;;;;;;17.58;10.50;;;17.20;99.90;;;;;;4915373;29;20103;-77
2023/05/26 03:23:36;;;;;;;17.65;10.25;;;17.20;99.90;;;;;;4914209;29;20036;-76
2023/05/26 03:26:02;;;;;;;16.52;9.02;;;17.30;99.90;;;;;;4897198;29;20024;-77
2023/05/26 03:28:31;;;;;;;18.10;9.70;;;17.30;99.90;;;;;;4916368;29;20421;-76
2023/05/26 03:30:58;;;;;;;17.75;10.35;;;17.30;99.90;;;;;;4897245;29;20037;-77
2023/05/26 03:33:25;;;;;;;18.95;10.18;;;17.30;99.90;;;;;;4897356;29;20060;-76
2023/05/26 03:35:51;;;;;;;17.45;9.75;;;17.30;99.90;;;;;;4914068;29;20036;-77
2023/05/26 03:38:17;;;;;;;17.10;10.32;;;17.40;99.90;;;;;;4897052;29;20515;-76
2023/05/26 03:40:44;;;;;;;20.63;10.80;;;17.40;99.90;;;;;;4897245;29;20395;-77
2023/05/26 03:43:10;;;;;;;15.27;9.63;;;17.50;99.90;;;;;;4898568;29;20020;-75
2023/05/26 03:45:43;;;;;;;17.88;10.93;;;17.50;99.90;;;;;;4915258;29;20055;-77
2023/05/26 03:48:12;;;;;;;15.13;9.80;;;17.60;99.90;;;;;;4897033;29;20031;-75
2023/05/26 03:50:41;;;;;;;18.83;10.77;;;17.60;99.90;;;;;;4917430;29;20032;-77
2023/05/26 03:53:08;;;;;;;17.52;10.68;;;17.60;99.90;;;;;;4918261;29;20028;-77
2023/05/26 03:55:33;;;;;;;17.77;10.85;;;17.60;99.90;;;;;;4917438;29;20122;-77
2023/05/26 03:58:00;;;;;;;20.27;10.45;;;17.70;99.90;;;;;;4900483;29;20607;-78
2023/05/26 04:00:28;;;;;;;15.02;9.32;;;17.70;99.90;;;;;;4916371;29;20028;-76
2023/05/26 04:02:55;;;;;;;16.30;10.00;;;17.70;99.90;;;;;;4904609;29;20047;-77
2023/05/26 04:05:21;;;;;;;16.73;10.00;;;17.70;99.90;;;;;;4923589;29;20032;-77
2023/05/26 04:07:47;;;;;;;16.77;9.82;;;17.80;99.90;;;;;;4909431;29;20054;-77
2023/05/26 04:10:13;;;;;;;16.98;10.30;;;17.70;99.90;;;;;;4936699;29;20506;-76
2023/05/26 04:12:39;;;;;;;17.15;9.82;;;17.70;99.90;;;;;;4924753;29;20056;-77
2023/05/26 04:15:06;;;;;;;15.45;9.90;;;17.80;99.90;;;;;;4937924;29;20032;-77
2023/05/26 04:17:31;;;;;;;17.85;9.80;;;17.70;99.90;;;;;;4934389;29;20031;-77
2023/05/26 04:19:59;;;;;;;18.15;10.77;;;17.70;99.90;;;;;;4937394;29;20028;-76
2023/05/26 04:22:25;;;;;;;16.02;9.70;;;17.70;99.90;;;;;;4920038;29;20530;-77
2023/05/26 04:24:50;;;;;;;16.55;10.48;;;17.70;99.90;;;;;;4920371;29;20046;-75
2023/05/26 04:27:25;;;;;;;15.07;9.85;;;17.60;99.90;;;;;;4920141;29;20035;-77
2023/05/26 04:30:11;;;;;;;19.83;10.75;;;17.60;99.90;;;;;;4930423;29;20048;-76
2023/05/26 04:32:57;;;;;;;18.42;10.98;;;17.60;99.90;;;;;;4868688;29;20418;-76
2023/05/26 04:35:40;;;;;;;15.13;8.88;;;17.70;99.90;;;;;;4878710;29;20041;-76
2023/05/26 04:38:06;;;;;;;17.33;10.02;;;17.70;99.90;;;;;;4867301;29;20049;-77
2023/05/26 04:40:32;;;;;;;17.63;9.57;;;17.70;99.90;;;;;;4877332;29;20497;-76
2023/05/26 04:43:00;;;;;;;16.80;9.55;;;17.70;99.90;;;;;;4878267;29;20033;-77
2023/05/26 04:45:26;;;;;;;17.83;10.10;;;17.60;99.90;;;;;;4862811;29;20060;-77
2023/05/26 04:47:56;;;;;;;17.88;11.43;;;17.70;99.90;;;;;;4862599;29;20036;-77
2023/05/26 04:50:23;;;;;;;15.13;9.27;;;17.70;99.90;;;;;;4877941;29;20093;-77
2023/05/26 04:52:49;;;;;;;17.77;10.57;;;17.70;99.90;;;;;;4862945;29;20037;-76
2023/05/26 04:55:16;;;;;;;16.30;9.90;;;17.80;99.90;;;;;;4862345;29;20029;-76
2023/05/26 04:57:43;;;;;;;19.60;10.30;;;17.80;99.90;;;;;;4862587;29;20045;-76
2023/05/26 05:00:12;;;;;;;18.17;9.75;;;17.80;99.90;;;;;;4878097;29;20029;-76
2023/05/26 05:02:38;;;;;;;19.85;11.00;;;17.90;99.90;;;;;;4862449;29;20120;-77
2023/05/26 05:05:24;;;;;;;16.75;9.07;;;17.90;99.90;;;;;;4877302;29;20085;-77
2023/05/26 05:07:51;;;;;;;17.52;11.73;;;17.90;99.90;;;;;;4877820;29;20056;-76
2023/05/26 05:10:18;;;;;;;16.00;10.63;;;17.90;99.90;;;;;;4893514;29;20466;-78
2023/05/26 05:12:44;;;;;;;17.27;11.00;;;17.90;99.90;;;;;;4919231;29;20059;-76
2023/05/26 05:15:12;;;;;;;16.95;10.75;;;17.90;99.90;;;;;;4919682;29;20027;-77
2023/05/26 05:17:39;;;;;;;18.05;11.00;;;18.00;99.90;;;;;;4919417;29;20051;-76
2023/05/26 05:20:07;;;;;;;16.55;10.55;;;18.00;99.90;;;;;;4919591;29;20118;-77
2023/05/26 05:22:33;;;;;;;15.77;10.27;;;18.10;99.90;;;;;;4919277;29;20046;-77
2023/05/26 05:24:59;;;;;;;25.10;11.32;;;18.10;99.90;;;;;;4935956;29;20396;-77
2023/05/26 05:27:25;;;;;;;17.48;10.75;;;18.20;99.90;;;;;;4919060;29;20024;-78
2023/05/26 05:29:51;;;;;;;14.98;9.60;;;18.30;99.90;;;;;;4935695;29;20046;-78
2023/05/26 05:32:17;;;;;;;20.33;10.88;;;18.40;99.90;;;;;;4919403;29;20404;-78
2023/05/26 05:34:47;;;;;;;16.58;10.05;;;18.50;99.90;;;;;;4918627;29;20075;-77
2023/05/26 05:37:13;;;;;;;17.83;10.05;;;18.60;99.90;;;;;;4919047;29;20035;-77
2023/05/26 05:39:39;;;;;;;16.85;9.93;;;18.60;99.90;;;;;;4918866;29;20032;-78
2023/05/26 05:42:06;;;;;;;16.08;10.13;;;18.60;99.90;;;;;;4918615;29;20028;-78
2023/05/26 05:44:32;;;;;;;15.70;9.43;;;18.70;99.90;;;;;;4918925;29;20040;-77
2023/05/26 05:46:58;;;;;;;18.42;10.45;;;18.70;99.90;;;;;;4918326;29;20102;-77
2023/05/26 05:49:34;;;;;;;16.88;10.38;;;18.60;99.90;;;;;;4936091;29;20031;-77
2023/05/26 05:52:00;;;;;;;16.88;10.90;;;18.50;99.90;;;;;;4918470;29;20036;-77
2023/05/26 05:54:27;;;;;;;21.10;11.32;;;18.50;99.90;;;;;;4935912;29;20036;-78
2023/05/26 05:56:54;;;;;;;21.35;11.50;;;18.40;99.90;;;;;;4934346;29;20411;-77
2023/05/26 05:59:21;;;;;;;19.23;11.60;;;18.30;99.90;;;;;;4911791;29;20190;-78
2023/05/26 06:01:47;;;;;;;23.45;12.02;;;18.20;99.90;;;;;;4935542;29;20360;-78
2023/05/26 06:04:13;;;;;;;22.65;12.50;;;18.20;99.90;;;;;;4935607;29;20039;-76
2023/05/26 06:06:39;;;;;;;20.10;12.15;;;18.20;99.90;;;;;;4935694;29;20023;-77
2023/05/26 06:09:04;;;;;;;21.83;13.52;;;18.10;99.90;;;;;;4934128;29;20476;-78
2023/05/26 06:11:31;;;;;;;18.52;11.45;;;18.10;99.90;;;;;;4917486;29;20044;-77
2023/05/26 06:13:57;;;;;;;19.40;12.68;;;18.00;99.90;;;;;;4918361;29;20087;-77
2023/05/26 06:16:23;;;;;;;20.40;12.68;;;17.90;99.90;;;;;;4917937;29;20016;-77
2023/05/26 06:18:49;;;;;;;25.33;14.25;;;18.00;99.90;;;;;;4917491;29;20507;-77
2023/05/26 06:21:15;;;;;;;26.90;15.57;;;18.00;99.90;;;;;;4917496;29;20055;-77
2023/05/26 06:23:45;;;;;;;26.05;18.67;;;17.90;99.90;;;;;;4915717;29;20035;-77
2023/05/26 06:26:11;;;;;;;25.77;18.85;;;17.90;99.90;;;;;;4933212;29;20078;-77
2023/05/26 06:28:37;;;;;;;27.00;19.80;;;17.90;99.90;;;;;;4916401;29;20017;-77
2023/05/26 06:31:03;;;;;;;29.38;19.67;;;17.90;99.90;;;;;;4917921;29;20440;-76
2023/05/26 06:33:31;;;;;;;32.33;20.70;;;17.90;99.90;;;;;;4935589;29;20481;-77
2023/05/26 06:35:59;;;;;;;25.10;17.40;;;17.90;99.90;;;;;;4927403;29;20103;-77
2023/05/26 06:38:25;;;;;;;21.02;14.88;;;17.90;99.90;;;;;;4917767;29;20028;-75
2023/05/26 06:40:53;;;;;;;20.75;12.82;;;17.80;99.90;;;;;;4917703;29;20031;-76
2023/05/26 06:43:20;;;;;;;25.70;15.60;;;17.90;99.90;;;;;;4918144;29;20075;-77
2023/05/26 06:45:46;;;;;;;19.05;13.18;;;18.00;99.90;;;;;;4909955;29;20102;-76
2023/05/26 06:48:12;;;;;;;24.40;15.77;;;18.10;99.90;;;;;;4918022;29;20487;-77
2023/05/26 06:50:45;;;;;;;22.52;13.80;;;18.20;99.90;;;;;;4918009;29;20087;-76
2023/05/26 06:53:11;;;;;;;21.25;14.80;;;18.20;99.90;;;;;;4934683;29;20031;-77
2023/05/26 06:55:37;;;;;;;21.90;14.20;;;18.30;99.90;;;;;;4917847;29;20031;-76
2023/05/26 06:58:03;;;;;;;23.60;14.98;;;18.40;99.90;;;;;;4934099;29;20071;-77
2023/05/26 07:00:31;;;;;;;22.48;14.55;;;18.50;99.90;;;;;;4917875;29;20035;-77
2023/05/26 07:03:08;;;;;;;31.80;19.27;;;18.80;99.90;;;;;;4917690;29;20031;-75
2023/05/26 07:05:41;;;;;;;30.23;17.92;;;19.10;99.90;;;;;;4917378;29;20395;-76
2023/05/26 07:08:06;;;;;;;27.98;17.77;;;19.40;99.90;;;;;;4917764;29;20863;-77
2023/05/26 07:10:32;;;;;;;25.65;15.40;;;19.80;99.90;;;;;;4917526;29;20046;-77
2023/05/26 07:12:58;;;;;;;18.60;12.63;;;20.10;99.90;;;;;;4934517;29;20067;-77
2023/05/26 07:15:26;;;;;;;20.70;11.40;;;20.40;99.90;;;;;;4934738;29;20024;-75
2023/05/26 07:17:52;;;;;;;20.13;11.55;;;20.90;99.90;;;;;;4917714;29;20399;-76
2023/05/26 07:20:19;;;;;;;16.55;11.30;;;21.10;99.90;;;;;;4917508;29;20051;-77
2023/05/26 07:22:46;;;;;;;16.10;11.23;;;20.90;99.90;;;;;;4918245;29;20119;-76
2023/05/26 07:25:19;;;;;;;17.33;11.77;;;20.70;99.90;;;;;;4921430;29;20473;-76
2023/05/26 07:27:48;;;;;;;20.83;11.70;;;20.80;99.90;;;;;;4921212;29;20084;-76
2023/05/26 07:30:14;;;;;;;19.10;10.70;;;20.80;99.90;;;;;;4921641;29;20043;-77
2023/05/26 07:33:00;;;;;;;20.90;12.00;;;20.70;99.90;;;;;;4869208;29;20037;-77
2023/05/26 07:35:27;;;;;;;16.67;11.43;;;20.90;99.90;;;;;;4863909;29;20397;-75
2023/05/26 07:37:53;;;;;;;17.13;10.98;;;20.60;99.90;;;;;;4863852;29;20375;-77
2023/05/26 07:40:19;;;;;;;16.83;10.45;;;21.20;99.90;;;;;;4879383;29;20039;-77
2023/05/26 07:42:45;;;;;;;18.63;11.18;;;21.10;99.90;;;;;;4879872;29;20041;-76
2023/05/26 07:45:11;;;;;;;19.70;11.23;;;21.00;99.90;;;;;;4879081;29;20045;-78
2023/05/26 07:47:36;;;;;;;17.92;11.70;;;21.20;99.90;;;;;;4879572;29;20723;-77
2023/05/26 07:50:03;;;;;;;15.45;11.10;;;21.40;99.90;;;;;;4878790;29;20045;-78
2023/05/26 07:52:28;;;;;;;14.50;10.38;;;21.30;99.90;;;;;;4879293;29;20021;-76
2023/05/26 07:54:55;;;;;;;18.80;11.35;;;21.30;99.90;;;;;;4878832;29;20037;-78
2023/05/26 07:57:21;;;;;;;19.10;11.27;;;21.20;99.90;;;;;;4863559;29;20041;-76
2023/05/26 07:59:46;;;;;;;16.40;10.90;;;21.40;99.90;;;;;;4879213;29;20033;-77
2023/05/26 08:02:12;;;;;;;16.92;11.25;;;21.60;99.90;;;;;;4867150;29;20474;-78
2023/05/26 08:04:38;;;;;;;16.35;10.75;;;21.60;99.90;;;;;;4855950;29;20053;-78
2023/05/26 08:07:05;;;;;;;20.33;11.75;;;22.10;99.90;;;;;;4870696;29;20041;-76
2023/05/26 08:09:31;;;;;;;17.85;11.60;;;22.10;99.90;;;;;;4861106;29;20044;-77
2023/05/26 08:11:57;;;;;;;18.00;11.52;;;22.30;99.90;;;;;;4937375;29;20114;-77
2023/05/26 08:14:23;;;;;;;19.50;13.27;;;22.50;99.90;;;;;;4937465;29;20043;-77
2023/05/26 08:16:49;;;;;;;20.15;12.55;;;22.50;99.90;;;;;;4937726;29;20275;-77
2023/05/26 08:19:15;;;;;;;19.25;12.15;;;22.50;99.90;;;;;;4937770;29;20062;-77
2023/05/26 08:21:41;;;;;;;22.95;11.73;;;22.50;99.90;;;;;;4937657;29;20476;-78
2023/05/26 08:24:06;;;;;;;18.50;11.52;;;22.40;99.90;;;;;;4937642;29;20047;-76
2023/05/26 08:26:32;;;;;;;17.83;10.45;;;22.50;99.90;;;;;;4937471;29;20028;-76
2023/05/26 08:28:58;;;;;;;19.45;11.50;;;22.60;99.90;;;;;;4937519;29;20060;-78
2023/05/26 08:31:24;;;;;;;16.80;10.75;;;22.50;99.90;;;;;;4937411;29;20035;-77
2023/05/26 08:33:50;;;;;;;18.23;11.45;;;23.10;99.90;;;;;;4937146;29;20036;-78
2023/05/26 08:36:15;;;;;;;17.83;11.40;;;23.00;99.90;;;;;;4936842;29;20484;-77
2023/05/26 08:38:41;;;;;;;18.85;12.82;;;22.80;99.90;;;;;;4936740;29;20028;-77
2023/05/26 08:41:09;;;;;;;17.92;12.15;;;22.80;99.90;;;;;;4937032;29;20071;-76
2023/05/26 08:44:03;;;;;;;17.85;12.10;;;22.80;99.90;;;;;;4936757;29;20822;-78
2023/05/26 08:46:31;;;;;;;16.95;11.18;;;22.90;99.90;;;;;;4933615;29;20055;-77
2023/05/26 08:48:58;;;;;;;17.27;11.43;;;22.80;99.90;;;;;;4912330;29;20483;-77
2023/05/26 08:51:23;;;;;;;18.73;11.05;;;22.80;99.90;;;;;;4936337;29;20019;-77
2023/05/26 08:53:50;;;;;;;21.58;11.13;;;22.90;99.90;;;;;;4936994;29;20372;-77
2023/05/26 08:56:16;;;;;;;18.80;11.02;;;23.00;99.90;;;;;;4936635;29;20534;-76
2023/05/26 08:58:43;;;;;;;17.85;11.40;;;22.90;99.90;;;;;;4936962;29;20024;-77
2023/05/26 09:01:09;;;;;;;17.00;10.93;;;23.10;99.90;;;;;;4936784;29;20040;-77
2023/05/26 09:03:35;;;;;;;17.38;11.63;;;23.30;99.90;;;;;;4925587;29;20167;-77
2023/05/26 09:06:02;;;;;;;18.40;11.65;;;23.10;99.90;;;;;;4919773;29;20099;-77
2023/05/26 09:08:29;;;;;;;16.95;10.05;;;23.00;99.90;;;;;;4936627;29;20027;-77
2023/05/26 09:10:54;;;;;;;22.75;12.25;;;23.30;99.90;;;;;;4934748;29;20039;-76
2023/05/26 09:13:23;;;;;;;18.25;11.73;;;23.10;99.90;;;;;;4917118;29;20036;-77
2023/05/26 09:15:51;;;;;;;16.58;11.00;;;23.40;99.90;;;;;;4917611;29;20043;-76
2023/05/26 09:18:17;;;;;;;16.50;10.48;;;23.40;99.90;;;;;;4917642;29;20064;-76
2023/05/26 09:20:48;;;;;;;17.55;11.27;;;23.50;99.90;;;;;;4917588;29;20039;-78
2023/05/26 09:23:16;;;;;;;15.98;10.63;;;23.70;99.90;;;;;;4917362;29;20156;-77
2023/05/26 09:25:45;;;;;;;17.50;10.52;;;23.70;99.90;;;;;;4900435;29;20492;-77
2023/05/26 09:28:14;;;;;;;17.08;10.93;;;23.90;99.90;;;;;;4917271;29;20032;-77
2023/05/26 09:30:43;;;;;;;15.65;10.10;;;23.90;99.90;;;;;;4917399;29;20028;-78
2023/05/26 09:33:17;;;;;;;19.38;10.35;;;23.80;99.90;;;;;;4917380;29;20020;-77
2023/05/26 09:35:45;;;;;;;16.13;10.98;;;23.80;99.90;;;;;;4916541;29;20476;-77
2023/05/26 09:38:15;;;;;;;16.95;10.35;;;24.10;99.90;;;;;;4917352;29;20115;-77
2023/05/26 09:40:46;;;;;;;19.13;11.43;;;23.90;99.90;;;;;;4916536;29;20119;-78
2023/05/26 09:43:15;;;;;;;16.23;9.38;;;23.90;99.90;;;;;;4916649;29;20036;-77
2023/05/26 09:45:41;;;;;;;17.95;10.45;;;23.60;99.90;;;;;;4916570;29;20048;-77
2023/05/26 09:48:09;;;;;;;18.63;9.52;;;23.80;99.90;;;;;;4916142;29;20482;-77
2023/05/26 09:50:37;;;;;;;13.55;8.48;;;23.90;99.90;;;;;;4913134;29;20070;-77
2023/05/26 09:53:10;;;;;;;13.30;8.45;;;23.90;99.90;;;;;;4916110;29;20107;-77
2023/05/26 09:55:42;;;;;;;13.10;8.82;;;23.90;99.90;;;;;;4916845;29;20028;-76
2023/05/26 09:58:11;;;;;;;14.27;8.85;;;23.90;99.90;;;;;;4915561;29;20072;-77
2023/05/26 10:00:39;;;;;;;14.32;9.68;;;23.90;99.90;;;;;;4907833;29;20036;-77
2023/05/26 10:03:06;;;;;;;13.98;9.27;;;24.00;99.90;;;;;;4916890;29;20095;-78
2023/05/26 10:05:34;;;;;;;21.13;8.52;;;24.00;99.90;;;;;;4916666;29;20055;-77
2023/05/26 10:08:01;;;;;;;14.45;8.57;;;24.30;99.90;;;;;;4916708;29;20028;-77
2023/05/26 10:10:29;;;;;;;16.15;7.95;;;24.30;99.90;;;;;;4916934;29;20032;-77
2023/05/26 10:12:56;;;;;;;12.55;7.93;;;24.40;99.90;;;;;;4934454;29;20039;-77
2023/05/26 10:15:21;;;;;;;13.93;8.38;;;24.50;99.90;;;;;;4934413;29;20119;-77
2023/05/26 10:17:48;;;;;;;13.20;7.93;;;24.50;99.90;;;;;;4933440;29;20111;-77
2023/05/26 10:20:14;;;;;;;13.95;8.88;;;24.40;99.90;;;;;;4916475;29;20387;-78
2023/05/26 10:23:01;;;;;;;15.80;8.85;;;24.50;99.90;;;;;;4931522;29;20032;-77
2023/05/26 10:26:04;;;;;;;17.60;9.48;;;24.50;99.90;;;;;;4924133;29;20130;-77
2023/05/26 10:29:00;;;;;;;14.18;8.40;;;24.20;99.90;;;;;;4935180;29;20042;-78
2023/05/26 10:31:31;;;;;;;15.02;9.05;;;24.50;99.90;;;;;;4932316;29;20036;-78
2023/05/26 10:33:57;;;;;;;15.25;8.25;;;24.60;99.90;;;;;;4927282;29;20031;-78
2023/05/26 10:36:23;;;;;;;18.38;9.45;;;24.30;99.90;;;;;;4933856;29;20038;-77
2023/05/26 10:38:52;;;;;;;14.95;9.68;;;24.30;99.90;;;;;;4934838;29;20563;-77
2023/05/26 10:41:35;;;;;;;18.58;8.88;;;24.10;99.90;;;;;;4935212;29;20035;-77
2023/05/26 10:44:02;;;;;;;17.95;9.48;;;23.70;99.90;;;;;;4934860;29;20032;-78
2023/05/26 10:46:46;;;;;;;14.82;8.63;;;23.80;99.90;;;;;;4934794;29;20026;-77
2023/05/26 10:49:22;;;;;;;16.05;8.55;;;24.10;99.90;;;;;;4934873;29;20176;-78
2023/05/26 10:51:52;;;;;;;13.60;8.43;;;24.10;99.90;;;;;;4934419;29;20058;-77
2023/05/26 10:54:24;;;;;;;16.02;9.18;;;24.20;99.90;;;;;;4935233;29;20412;-77
2023/05/26 10:56:55;;;;;;;13.43;9.25;;;24.20;99.90;;;;;;4919332;29;20511;-77
2023/05/26 10:59:35;;;;;;;17.02;8.80;;;24.00;99.90;;;;;;4914074;29;20024;-77
2023/05/26 11:02:05;;;;;;;15.07;8.48;;;23.80;99.90;;;;;;4932868;29;20035;-76
2023/05/26 11:04:45;;;;;;;14.32;9.20;;;23.70;99.90;;;;;;4934760;29;20030;-78
2023/05/26 11:07:23;;;;;;;14.93;9.20;;;23.60;99.90;;;;;;4927055;29;20032;-76
2023/05/26 11:10:02;;;;;;;14.50;9.20;;;23.60;99.90;;;;;;4934633;29;20066;-78
2023/05/26 11:12:54;;;;;;;15.95;9.35;;;23.60;99.90;;;;;;4933648;29;20095;-79
2023/05/26 11:15:25;;;;;;;18.80;9.10;;;23.70;99.90;;;;;;4933412;29;20384;-77
2023/05/26 11:18:01;;;;;;;17.93;9.00;;;23.60;99.90;;;;;;4915403;29;20029;-76
2023/05/26 11:20:27;;;;;;;14.02;8.63;;;23.80;99.90;;;;;;4918643;29;20376;-77
2023/05/26 11:22:53;;;;;;;14.60;8.48;;;24.20;99.90;;;;;;4934413;29;20057;-75
2023/05/26 11:25:19;;;;;;;13.68;8.45;;;24.50;99.90;;;;;;4934779;29;20071;-76
2023/05/26 11:27:49;;;;;;;15.75;8.90;;;24.80;99.90;;;;;;4934568;29;20399;-76
2023/05/26 11:30:15;;;;;;;13.70;8.60;;;25.00;99.90;;;;;;4934503;29;20031;-76
2023/05/26 11:32:45;;;;;;;13.20;8.38;;;25.30;99.90;;;;;;4934723;29;20035;-76
2023/05/26 11:35:25;;;;;;;14.10;7.68;;;25.30;99.90;;;;;;4934527;29;20044;-74
2023/05/26 11:37:52;;;;;;;16.65;8.02;;;25.70;99.90;;;;;;4934897;29;20120;-75
2023/05/26 11:40:18;;;;;;;12.80;7.43;;;25.80;99.90;;;;;;4934314;29;20384;-76
2023/05/26 11:42:45;;;;;;;13.45;7.80;;;25.60;99.90;;;;;;4934801;29;20035;-75
2023/05/26 11:45:11;;;;;;;15.90;8.07;;;25.80;99.90;;;;;;4934132;29;20135;-76
2023/05/26 11:47:37;;;;;;;12.57;8.05;;;25.50;99.90;;;;;;4934365;29;20098;-75
2023/05/26 11:50:10;;;;;;;12.48;8.85;;;25.30;99.90;;;;;;4934587;29;20043;-75
2023/05/26 11:52:47;;;;;;;13.63;7.13;;;25.20;99.90;;;;;;4934408;29;20028;-75
2023/05/26 11:55:15;;;;;;;14.60;7.30;;;25.20;99.30;;;;;;4934491;29;20023;-75
2023/05/26 11:57:42;;;;;;;11.32;7.78;;;25.50;99.90;;;;;;4934362;29;20020;-74
2023/05/26 12:00:19;;;;;;;12.57;8.40;;;25.50;99.40;;;;;;4934143;29;20046;-75
2023/05/26 12:02:48;;;;;;;11.32;6.50;;;25.30;99.90;;;;;;4934332;29;20024;-75
2023/05/26 12:05:17;;;;;;;11.32;7.32;;;25.50;98.30;;;;;;4934516;29;20047;-75
2023/05/26 12:07:43;;;;;;;13.77;6.65;;;25.60;99.90;;;;;;4934267;29;20027;-75
2023/05/26 12:10:09;;;;;;;12.95;7.13;;;25.60;99.90;;;;;;4935502;29;20039;-74
2023/05/26 12:12:51;;;;;;;12.63;7.22;;;25.50;98.60;;;;;;4937738;29;20071;-75
2023/05/26 12:15:21;;;;;;;14.13;7.38;;;25.20;99.90;;;;;;4937981;29;20035;-74
2023/05/26 12:17:47;;;;;;;13.15;7.10;;;25.10;99.10;;;;;;4937654;29;20525;-75
2023/05/26 12:20:16;;;;;;;15.20;6.95;;;25.20;99.90;;;;;;4937752;29;20361;-75
2023/05/26 12:22:42;;;;;;;13.70;6.80;;;25.10;99.90;;;;;;4937304;29;20028;-76
2023/05/26 12:25:08;;;;;;;13.70;7.97;;;25.10;99.90;;;;;;4937635;29;20046;-76
2023/05/26 12:27:38;;;;;;;12.15;7.00;;;25.10;99.90;;;;;;4937197;29;20028;-77
2023/05/26 12:30:19;;;;;;;12.18;6.97;;;25.20;97.80;;;;;;4937336;29;20596;-76
2023/05/26 12:32:46;;;;;;;11.02;6.95;;;25.40;99.10;;;;;;4925186;29;20039;-75
2023/05/26 12:35:13;;;;;;;15.18;7.18;;;25.40;99.90;;;;;;4937643;29;20032;-75
2023/05/26 12:37:39;;;;;;;16.15;8.00;;;25.70;98.70;;;;;;4937550;29;20039;-75
2023/05/26 12:40:06;;;;;;;15.15;8.07;;;26.00;99.20;;;;;;4937034;29;20032;-75